createdAt,value
2018-12-18T00:03:57.376Z,18.93
2018-12-18T00:09:07.577Z,20.17
2018-12-18T00:14:17.110Z,14.00
2018-12-18T00:19:26.507Z,18.37
2018-12-18T00:24:36.022Z,18.17
2018-12-18T00:29:45.557Z,17.03
2018-12-18T00:34:54.902Z,15.53
2018-12-18T00:40:05.691Z,19.53
2018-12-18T00:45:15.297Z,18.43
2018-12-18T00:50:24.783Z,24.60
2018-12-18T00:55:34.221Z,21.00
2018-12-18T01:00:43.621Z,18.20
2018-12-18T01:05:52.971Z,14.10
2018-12-18T01:11:03.430Z,18.90
2018-12-18T01:16:12.874Z,14.63
2018-12-18T01:21:22.273Z,16.60
2018-12-18T01:26:31.611Z,15.33
2018-12-18T01:31:40.941Z,19.00
2018-12-18T01:36:50.325Z,15.40
2018-12-18T01:42:03.858Z,17.30
2018-12-18T01:47:13.317Z,15.17
2018-12-18T01:52:23.194Z,21.23
2018-12-18T01:57:32.554Z,12.70
2018-12-18T02:02:41.924Z,17.50
2018-12-18T02:07:51.261Z,12.40
2018-12-18T02:13:00.677Z,15.63
2018-12-18T02:18:10.073Z,12.50
2018-12-18T02:23:19.466Z,13.37
2018-12-18T02:28:28.856Z,14.83
2018-12-18T02:33:38.614Z,7.83
2018-12-18T02:38:48.206Z,10.63
2018-12-18T02:43:57.601Z,14.40
2018-12-18T02:49:06.921Z,16.03
2018-12-18T02:54:16.618Z,13.63
2018-12-18T02:59:27.075Z,13.90
2018-12-18T03:04:36.493Z,14.93
2018-12-18T03:09:46.021Z,14.00
2018-12-18T03:14:55.527Z,14.07
2018-12-18T03:20:05.197Z,14.67
2018-12-18T03:25:14.730Z,15.63
2018-12-18T03:30:24.082Z,17.70
2018-12-18T03:35:33.454Z,20.43
2018-12-18T03:40:42.978Z,18.13
2018-12-18T03:45:53.134Z,12.57
2018-12-18T03:51:02.814Z,18.80
2018-12-18T03:56:12.341Z,14.40
2018-12-18T04:01:21.750Z,17.47
2018-12-18T04:06:31.482Z,14.53
2018-12-18T04:11:46.489Z,14.27
2018-12-18T04:16:56.103Z,18.53
2018-12-18T04:22:05.470Z,13.90
2018-12-18T04:27:14.984Z,17.97
2018-12-18T04:32:24.574Z,14.73
2018-12-18T04:37:34.089Z,16.17
2018-12-18T04:42:43.456Z,10.70
2018-12-18T04:47:52.825Z,11.87
2018-12-18T04:53:02.346Z,18.90
2018-12-18T04:58:11.710Z,10.87
2018-12-18T05:03:21.182Z,12.80
2018-12-18T05:08:30.555Z,14.37
2018-12-18T05:13:39.902Z,14.20
2018-12-18T05:18:49.391Z,11.07
2018-12-18T05:23:58.751Z,17.27
2018-12-18T05:29:08.088Z,12.57
2018-12-18T05:34:17.709Z,11.60
2018-12-18T05:39:27.232Z,10.90
2018-12-18T05:44:36.573Z,14.13
2018-12-18T05:49:45.956Z,13.53
2018-12-18T05:54:55.285Z,12.67
2018-12-18T06:00:05.005Z,8.80
2018-12-18T06:05:14.802Z,10.97
2018-12-18T06:10:24.282Z,10.93
2018-12-18T06:15:33.672Z,10.23
2018-12-18T06:20:43.229Z,7.90
2018-12-18T06:25:52.798Z,10.48
2018-12-18T06:31:02.214Z,9.77
2018-12-18T06:36:11.614Z,11.37
2018-12-18T06:41:21.198Z,11.73
2018-12-18T06:46:30.847Z,10.07
2018-12-18T06:51:40.431Z,10.43
2018-12-18T06:56:50.704Z,6.20
2018-12-18T07:02:00.032Z,6.70
2018-12-18T07:07:09.368Z,7.67
2018-12-18T07:12:18.685Z,5.03
2018-12-18T07:17:28.049Z,6.47
2018-12-18T07:22:37.423Z,8.17
2018-12-18T07:27:46.827Z,6.77
2018-12-18T07:32:56.336Z,11.53
2018-12-18T07:38:05.824Z,6.03
2018-12-18T07:43:15.270Z,7.97
2018-12-18T07:48:24.734Z,6.47
2018-12-18T07:53:35.370Z,5.37
2018-12-18T07:58:45.069Z,10.17
2018-12-18T08:03:54.854Z,8.97
2018-12-18T08:09:08.037Z,5.07
2018-12-18T08:14:17.501Z,8.33
2018-12-18T08:19:27.005Z,7.50
2018-12-18T08:24:36.476Z,9.40
2018-12-18T08:29:45.882Z,9.20
2018-12-18T08:34:55.445Z,8.30
2018-12-18T08:40:05.832Z,6.70
2018-12-18T08:45:15.322Z,4.83
2018-12-18T08:50:24.750Z,4.80
2018-12-18T08:55:34.268Z,5.77
2018-12-18T09:00:43.812Z,5.50
2018-12-18T09:05:53.196Z,12.53
2018-12-18T09:11:02.592Z,5.80
2018-12-18T09:16:17.523Z,6.93
2018-12-18T09:21:27.080Z,8.53
2018-12-18T09:26:36.661Z,5.97
2018-12-18T09:31:46.287Z,5.27
2018-12-18T09:36:56.002Z,7.10
2018-12-18T09:42:10.735Z,5.17
2018-12-18T09:47:20.143Z,10.33
2018-12-18T09:52:29.505Z,7.10
2018-12-18T09:58:11.801Z,7.70
2018-12-18T10:03:21.167Z,7.10
2018-12-18T10:08:30.553Z,7.57
2018-12-18T10:13:40.183Z,7.03
2018-12-18T10:18:49.793Z,9.30
2018-12-18T10:24:00.356Z,7.50
2018-12-18T10:29:09.945Z,5.57
2018-12-18T10:34:19.322Z,6.73
2018-12-18T10:39:28.750Z,7.47
2018-12-18T10:44:38.338Z,7.40
2018-12-18T10:49:47.830Z,7.00
2018-12-18T10:54:57.269Z,6.50
2018-12-18T11:00:13.002Z,5.20
2018-12-18T11:05:22.493Z,6.07
2018-12-18T11:10:31.860Z,4.97
2018-12-18T11:15:41.533Z,3.23
2018-12-18T11:20:51.225Z,5.33
2018-12-18T11:26:00.728Z,7.53
2018-12-18T11:31:10.173Z,6.80
2018-12-18T11:36:19.649Z,5.70
2018-12-18T11:41:29.142Z,5.83
2018-12-18T11:46:38.531Z,4.37
2018-12-18T11:51:48.046Z,4.20
2018-12-18T11:56:57.374Z,6.70
2018-12-18T12:02:06.762Z,5.03
2018-12-18T12:07:16.310Z,6.67
2018-12-18T12:12:25.698Z,3.30
2018-12-18T12:17:35.592Z,5.20
2018-12-18T12:22:45.198Z,3.13
2018-12-18T12:28:00.280Z,6.13
2018-12-18T12:33:09.637Z,6.53
2018-12-18T12:38:19.002Z,6.10
2018-12-18T12:43:28.499Z,3.20
2018-12-18T12:48:43.277Z,4.27
2018-12-18T12:53:52.706Z,5.23
2018-12-18T12:59:02.075Z,5.80
2018-12-18T13:04:11.417Z,3.77
2018-12-18T13:09:21.189Z,8.27
2018-12-18T13:14:30.764Z,7.27
2018-12-18T13:19:40.134Z,5.57
2018-12-18T13:24:49.465Z,4.67
2018-12-18T13:29:59.168Z,8.63
2018-12-18T13:35:08.697Z,10.37
2018-12-18T13:40:18.394Z,4.57
2018-12-18T13:45:27.899Z,4.33
2018-12-18T13:50:37.231Z,6.10
2018-12-18T13:55:46.819Z,6.33
2018-12-18T14:00:56.393Z,7.63
2018-12-18T14:06:05.939Z,7.07
2018-12-18T14:11:15.483Z,2.93
2018-12-18T14:16:24.850Z,6.90
2018-12-18T14:21:34.490Z,7.50
2018-12-18T14:26:43.981Z,4.43
2018-12-18T14:31:53.333Z,5.60
2018-12-18T14:37:02.687Z,7.00
2018-12-18T14:42:12.057Z,4.50
2018-12-18T14:47:21.397Z,3.97
2018-12-18T14:52:30.897Z,5.73
2018-12-18T14:57:40.335Z,8.73
2018-12-18T15:02:49.754Z,7.50
2018-12-18T15:07:59.631Z,7.63
2018-12-18T15:13:09.266Z,8.50
2018-12-18T15:18:18.859Z,6.27
2018-12-18T15:23:28.413Z,6.10
2018-12-18T15:28:37.790Z,5.97
2018-12-18T15:33:47.150Z,7.00
2018-12-18T15:38:56.499Z,6.73
2018-12-18T15:44:06.049Z,4.13
2018-12-18T15:49:15.391Z,6.30
2018-12-18T15:54:24.770Z,5.27
2018-12-18T15:59:34.247Z,6.23
2018-12-18T16:04:43.587Z,6.70
2018-12-18T16:09:52.954Z,3.37
2018-12-18T16:15:02.360Z,3.57
2018-12-18T16:20:11.847Z,5.70
2018-12-18T16:25:21.201Z,5.67
2018-12-18T16:30:30.613Z,3.27
2018-12-18T16:35:45.959Z,9.60
2018-12-18T16:40:51.380Z,5.30
2018-12-18T16:46:00.890Z,5.80
2018-12-18T16:51:10.240Z,4.73
2018-12-18T16:56:19.615Z,7.27
2018-12-18T17:01:29.222Z,6.33
2018-12-18T17:06:38.790Z,6.17
2018-12-18T17:11:48.161Z,4.57
2018-12-18T17:16:57.687Z,3.53
2018-12-18T17:22:07.078Z,4.57
2018-12-18T17:27:16.727Z,2.90
2018-12-18T17:32:26.046Z,4.70
2018-12-18T17:37:36.324Z,6.43
2018-12-18T17:42:46.086Z,6.60
2018-12-18T17:47:55.450Z,9.33
2018-12-18T17:53:04.859Z,10.33
2018-12-18T17:58:14.223Z,6.93
2018-12-18T18:03:23.755Z,6.97
2018-12-18T18:08:33.111Z,7.80
2018-12-18T18:13:42.536Z,6.17
2018-12-18T18:18:52.038Z,6.43
2018-12-18T18:24:01.613Z,4.17
2018-12-18T18:29:11.126Z,5.57
2018-12-18T18:34:20.535Z,6.57
2018-12-18T18:39:30.038Z,5.87
2018-12-18T18:44:39.693Z,5.10
2018-12-18T18:49:49.324Z,6.40
2018-12-18T18:54:58.798Z,6.93
2018-12-18T19:00:09.198Z,5.20
2018-12-18T19:05:18.678Z,7.43
2018-12-18T19:10:28.210Z,4.30
2018-12-18T19:15:37.623Z,9.80
2018-12-18T19:20:47.010Z,7.50
2018-12-18T19:25:56.378Z,6.57
2018-12-18T19:31:05.935Z,8.63
2018-12-18T19:36:15.337Z,4.47
2018-12-18T19:41:24.846Z,5.80
2018-12-18T19:46:34.247Z,4.90
2018-12-18T19:51:43.811Z,4.00
2018-12-18T19:56:53.493Z,7.17
2018-12-18T20:02:03.095Z,4.40
2018-12-18T20:07:12.626Z,6.43
2018-12-18T20:12:22.519Z,8.70
2018-12-18T20:17:32.036Z,3.67
2018-12-18T20:22:41.484Z,3.23
2018-12-18T20:27:51.062Z,4.23
2018-12-18T20:33:00.427Z,6.50
2018-12-18T20:38:09.798Z,4.97
2018-12-18T20:43:19.254Z,5.37
2018-12-18T20:48:28.941Z,4.27
2018-12-18T20:53:38.300Z,5.37
2018-12-18T20:58:47.710Z,4.10
2018-12-18T21:03:57.099Z,4.50
2018-12-18T21:09:08.442Z,7.93
2018-12-18T21:14:17.998Z,3.10
2018-12-18T21:19:27.389Z,5.40
2018-12-18T21:24:36.830Z,11.27
2018-12-18T21:29:46.423Z,4.30
2018-12-18T21:34:56.014Z,4.37
2018-12-18T21:40:06.326Z,4.20
2018-12-18T21:45:15.714Z,2.90
2018-12-18T21:50:25.460Z,6.33
2018-12-18T21:55:34.918Z,8.10
2018-12-18T22:00:44.330Z,3.27
2018-12-18T22:05:53.884Z,5.10
2018-12-18T22:11:03.522Z,3.43
2018-12-18T22:16:12.976Z,3.70
2018-12-18T22:21:22.554Z,3.10
2018-12-18T22:26:32.063Z,3.13
2018-12-18T22:31:41.699Z,4.57
2018-12-18T22:36:51.082Z,3.10
2018-12-18T22:42:00.621Z,6.70
2018-12-18T22:47:10.086Z,3.47
2018-12-18T22:52:19.526Z,3.80
2018-12-18T22:57:29.026Z,5.10
2018-12-18T23:02:38.582Z,3.47
2018-12-18T23:07:47.940Z,5.13
2018-12-18T23:12:57.441Z,3.10
2018-12-18T23:18:06.880Z,2.63
2018-12-18T23:23:16.331Z,8.37
2018-12-18T23:28:25.878Z,4.50
2018-12-18T23:33:35.766Z,3.70
2018-12-18T23:38:45.194Z,5.90
2018-12-18T23:43:54.545Z,3.07
2018-12-18T23:49:04.102Z,2.80
2018-12-18T23:54:13.475Z,3.23
2018-12-18T23:59:23.026Z,5.70
